Time;durP1;ratioP1;P1;durP2;ratioP2;P2;SDS_P1;SDS_P2;PMS_P1;PMS_P2;Temp;Humidity;BMP_temperature;BMP_pressure;BME280_temperature;BME280_humidity;BME280_pressure;Samples;Min_cycle;Max_cycle;Signal;HPM_P1;HPM_P2
2021/05/25 00:02:06;;;;;;;;;7.00;6.00;;;;;20.64;43.85;98457.81;6234669;27;125011;-66
2021/05/25 00:05:11;;;;;;;;;5.50;5.50;;;;;20.65;44.44;98459.47;6233636;28;124398;-66
2021/05/25 00:08:14;;;;;;;;;6.75;6.00;;;;;20.67;43.72;98461.91;6234295;27;125012;-66
2021/05/25 00:11:47;;;;;;;;;6.25;6.25;;;;;20.68;44.37;98458.84;6259168;27;96379;-66
2021/05/25 00:14:53;;;;;;;;;7.00;7.00;;;;;20.65;44.06;98455.91;6229424;27;126435;-66
2021/05/25 00:17:55;;;;;;;;;7.00;7.00;;;;;20.64;44.34;98454.25;6229228;27;126664;-66
2021/05/25 00:20:59;;;;;;;;;5.60;4.60;;;;;20.57;45.21;98454.66;6209349;28;124291;-66
2021/05/25 00:24:02;;;;;;;;;6.00;5.00;;;;;20.52;45.08;98465.69;6228968;28;125020;-66
2021/05/25 00:27:06;;;;;;;;;6.40;5.40;;;;;20.41;44.96;98452.44;6228618;28;125619;-66
2021/05/25 00:30:11;;;;;;;;;6.00;5.75;;;;;20.54;45.18;98468.13;6228131;28;124937;-66
2021/05/25 00:33:14;;;;;;;;;4.20;4.00;;;;;20.52;44.01;98465.69;6227475;28;123690;-66
2021/05/25 00:36:17;;;;;;;;;5.00;5.00;;;;;20.57;44.54;98471.09;6226597;28;125651;-66
2021/05/25 00:39:19;;;;;;;;;7.00;6.00;;;;;20.61;44.89;98469.38;6218774;27;125087;-66
2021/05/25 00:42:23;;;;;;;;;6.00;6.00;;;;;20.61;44.47;98461.16;6224738;28;125504;-65
2021/05/25 00:45:26;;;;;;;;;5.00;4.00;;;;;20.60;44.48;98473.22;6226753;28;124903;-67
2021/05/25 00:48:28;;;;;;;;;4.80;4.60;;;;;20.59;44.21;98477.06;6227228;28;123953;-67
2021/05/25 00:51:32;;;;;;;;;4.80;4.00;;;;;20.57;44.57;98492.19;6224978;28;125246;-65
2021/05/25 00:54:34;;;;;;;;;5.00;5.00;;;;;20.59;44.61;98476.25;6227617;28;125981;-65
2021/05/25 00:57:38;;;;;;;;;5.00;5.00;;;;;20.60;45.08;98464.19;6226623;28;126679;-65
2021/05/25 01:00:43;;;;;;;;;4.40;4.40;;;;;20.62;44.70;98454.56;6228630;28;124678;-66
2021/05/25 01:03:46;;;;;;;;;5.00;4.00;;;;;20.61;44.84;98452.94;6229441;27;125573;-66
2021/05/25 01:06:49;;;;;;;;;6.00;6.00;;;;;20.55;44.22;98434.16;6232353;27;125211;-66
2021/05/25 01:09:53;;;;;;;;;4.60;4.60;;;;;20.57;44.19;98426.47;6227460;28;125778;-66
2021/05/25 01:13:02;;;;;;;;;5.00;5.00;;;;;20.60;44.67;98429.41;6222600;27;126662;-66
2021/05/25 01:16:06;;;;;;;;;4.00;4.00;;;;;20.54;44.33;98430.59;6221754;28;125933;-66
2021/05/25 01:19:08;;;;;;;;;4.00;4.00;;;;;20.56;43.55;98433.03;6228769;27;126061;-65
2021/05/25 01:22:12;;;;;;;;;3.40;3.40;;;;;20.58;43.45;98420.66;6216082;28;124994;-65
2021/05/25 01:25:16;;;;;;;;;4.20;4.20;;;;;20.56;44.36;98406.47;6213010;28;126336;-65
2021/05/25 01:28:21;;;;;;;;;4.00;4.00;;;;;20.50;44.23;98396.69;6212719;28;126247;-65
2021/05/25 01:31:24;;;;;;;;;6.00;5.00;;;;;20.46;44.71;98387.47;6210858;28;125318;-66
2021/05/25 01:34:27;;;;;;;;;6.40;4.40;;;;;20.39;44.96;98386.19;6186830;28;125465;-66
2021/05/25 01:37:30;;;;;;;;;5.00;4.60;;;;;20.39;45.44;98381.53;6210422;28;125227;-66
2021/05/25 01:40:34;;;;;;;;;4.00;4.00;;;;;20.38;45.13;98381.84;6212079;28;125400;-65
2021/05/25 01:43:37;;;;;;;;;5.00;5.00;;;;;20.36;45.69;98371.19;6210979;28;127143;-65
2021/05/25 01:46:44;;;;;;;;;4.20;4.00;;;;;20.39;45.65;98375.25;6212298;28;125329;-65
2021/05/25 01:49:47;;;;;;;;;4.00;4.00;;;;;20.27;46.37;98368.28;6210046;28;125823;-66
2021/05/25 01:52:57;;;;;;;;;5.00;5.00;;;;;20.19;46.61;98387.28;6211378;28;124983;-66
2021/05/25 01:56:00;;;;;;;;;4.00;4.00;;;;;20.14;46.65;98401.03;6209816;28;125280;-66
2021/05/25 01:59:03;;;;;;;;;5.00;4.60;;;;;20.15;46.45;98408.16;6210587;28;125870;-65
2021/05/25 02:02:06;;;;;;;;;6.00;5.00;;;;;20.16;46.97;98415.25;6211809;28;125647;-65
2021/05/25 02:05:09;;;;;;;;;5.60;5.00;;;;;20.14;47.53;98451.13;6202275;28;125333;-66
2021/05/25 02:08:14;;;;;;;;;5.00;5.00;;;;;20.17;47.46;98493.53;6207854;28;126349;-66
2021/05/25 02:11:17;;;;;;;;;5.00;5.00;;;;;20.22;47.85;98453.22;6222111;27;124783;-66
2021/05/25 02:14:19;;;;;;;;;4.00;3.50;;;;;20.23;48.77;98419.25;6205083;28;125059;-66
2021/05/25 02:17:27;;;;;;;;;4.00;4.00;;;;;20.14;48.46;98399.13;6194735;28;124750;-66
2021/05/25 02:20:30;;;;;;;;;5.00;5.00;;;;;20.16;48.42;98409.78;6204595;28;124827;-67
2021/05/25 02:23:35;;;;;;;;;6.00;5.00;;;;;20.04;48.61;98429.34;6190680;28;125961;-67
2021/05/25 02:26:37;;;;;;;;;5.50;5.50;;;;;19.99;49.66;98465.00;6188273;28;126095;-66
2021/05/25 02:29:40;;;;;;;;;5.00;5.00;;;;;19.75;49.39;98443.13;6188190;28;125749;-67
2021/05/25 02:32:43;;;;;;;;;4.40;4.40;;;;;19.70;50.15;98439.66;6197742;28;126070;-66
2021/05/25 02:35:49;;;;;;;;;5.60;5.00;;;;;19.79;51.18;98405.88;6190018;28;127099;-66
2021/05/25 02:38:52;;;;;;;;;4.00;4.00;;;;;19.80;50.60;98390.28;6186015;28;125858;-66
2021/05/25 02:41:55;;;;;;;;;3.00;3.00;;;;;19.70;49.79;98374.81;6189032;28;123885;-66
2021/05/25 02:44:58;;;;;;;;;4.00;4.00;;;;;19.68;50.32;98371.59;6193460;28;123965;-66
2021/05/25 02:48:00;;;;;;;;;5.00;4.75;;;;;19.72;49.96;98394.50;6190099;28;125014;-66
2021/05/25 02:51:04;;;;;;;;;4.00;4.00;;;;;19.70;50.24;98415.84;6203040;28;126974;-66
2021/05/25 02:54:07;;;;;;;;;5.60;5.00;;;;;19.68;50.52;98425.47;6186414;28;126811;-66
2021/05/25 02:57:10;;;;;;;;;4.00;4.00;;;;;19.59;50.32;98503.78;6191227;28;126441;-66
2021/05/25 03:00:16;;;;;;;;;6.00;5.00;;;;;19.47;51.55;98564.31;6191235;28;124057;-66
2021/05/25 03:03:18;;;;;;;;;5.00;4.00;;;;;19.40;51.63;98550.94;6192805;28;126064;-66
2021/05/25 03:06:21;;;;;;;;;3.25;3.00;;;;;19.33;51.25;98547.72;6235876;27;125801;-66
2021/05/25 03:09:29;;;;;;;;;4.00;4.00;;;;;19.26;51.53;98552.69;6209868;28;124884;-66
2021/05/25 03:12:32;;;;;;;;;6.00;5.00;;;;;19.22;51.38;98534.44;6195574;28;126404;-66
2021/05/25 03:15:38;;;;;;;;;4.00;3.00;;;;;19.25;51.65;98510.09;6201323;28;125401;-67
2021/05/25 03:18:41;;;;;;;;;4.00;4.00;;;;;19.25;51.41;98490.16;6209656;28;127826;-66
2021/05/25 03:21:43;;;;;;;;;5.40;5.00;;;;;19.39;51.26;98486.44;6194705;28;124962;-66
2021/05/25 03:24:47;;;;;;;;;4.00;4.00;;;;;19.42;51.13;98487.78;6211668;28;127186;-66
2021/05/25 03:27:50;;;;;;;;;3.20;3.00;;;;;19.44;51.73;98496.56;6211765;28;126948;-66
2021/05/25 03:30:52;;;;;;;;;4.00;4.00;;;;;19.43;51.42;98514.84;6207335;28;124926;-66
2021/05/25 03:33:55;;;;;;;;;5.00;4.00;;;;;19.30;51.26;98503.75;6204376;28;126640;-65
2021/05/25 03:36:58;;;;;;;;;5.25;5.25;;;;;19.42;51.61;98515.94;6209017;28;124657;-66
2021/05/25 03:40:04;;;;;;;;;6.20;6.00;;;;;19.49;51.53;98510.16;6191345;28;126162;-66
2021/05/25 03:43:07;;;;;;;;;4.00;4.00;;;;;19.54;51.39;98492.91;6201709;28;125891;-66
2021/05/25 03:46:09;;;;;;;;;6.00;5.67;;;;;19.54;51.07;98485.50;6208692;28;125639;-66
2021/05/25 03:49:12;;;;;;;;;5.00;4.00;;;;;19.27;52.22;98471.53;6192669;28;127068;-66
2021/05/25 03:52:15;;;;;;;;;4.00;4.00;;;;;19.28;51.96;98456.75;6194589;28;126257;-66
2021/05/25 03:55:27;;;;;;;;;6.00;5.00;;;;;19.34;53.08;98461.91;6215924;28;125241;-66
2021/05/25 03:58:49;;;;;;;;;6.00;5.00;;;;;19.38;53.08;98482.09;6202417;28;125914;-66
2021/05/25 04:01:52;;;;;;;;;6.00;6.00;;;;;19.45;52.73;98466.16;6196608;28;125812;-67
2021/05/25 04:04:55;;;;;;;;;6.00;5.50;;;;;19.53;53.04;98472.13;6205242;28;126612;-67
2021/05/25 04:07:58;;;;;;;;;5.60;5.60;;;;;19.57;52.40;98463.03;6208382;28;124485;-66
2021/05/25 04:11:02;;;;;;;;;4.60;4.60;;;;;19.60;52.47;98454.25;6202865;28;126909;-66
2021/05/25 04:14:05;;;;;;;;;6.00;5.50;;;;;19.66;52.73;98444.88;6206781;28;124735;-66
2021/05/25 04:17:08;;;;;;;;;4.25;4.25;;;;;19.69;52.94;98451.72;6206962;28;126185;-68
2021/05/25 04:20:12;;;;;;;;;4.60;4.60;;;;;19.75;52.57;98440.41;6199465;28;126278;-66
2021/05/25 04:23:15;;;;;;;;;6.60;6.00;;;;;19.72;52.87;98427.31;6208228;28;126073;-66
2021/05/25 04:26:18;;;;;;;;;5.40;5.40;;;;;19.58;53.00;98426.41;6208286;28;125637;-66
2021/05/25 04:29:21;;;;;;;;;4.40;4.40;;;;;19.66;52.84;98452.28;6204730;28;126248;-66
2021/05/25 04:32:24;;;;;;;;;5.00;4.00;;;;;19.72;52.95;98460.13;6194241;28;126630;-66
2021/05/25 04:35:27;;;;;;;;;5.00;4.40;;;;;19.60;52.40;98443.31;6191951;28;125304;-66
2021/05/25 04:38:29;;;;;;;;;5.50;5.00;;;;;19.72;52.74;98448.38;6204170;28;124778;-66
2021/05/25 04:41:33;;;;;;;;;5.00;4.00;;;;;19.76;53.24;98443.94;6208866;28;126878;-66
2021/05/25 04:44:36;;;;;;;;;7.00;6.00;;;;;19.82;53.66;98434.59;6186767;28;124635;-66
2021/05/25 04:47:38;;;;;;;;;7.00;6.00;;;;;19.46;53.46;98384.97;6191634;28;126785;-66
2021/05/25 04:50:42;;;;;;;;;4.00;4.00;;;;;19.78;53.04;98447.22;6190072;28;126432;-66
2021/05/25 04:53:45;;;;;;;;;5.00;5.00;;;;;19.94;53.35;98461.53;6188231;28;123990;-67
2021/05/25 04:56:48;;;;;;;;;6.20;5.20;;;;;19.95;53.46;98461.22;6203434;28;124395;-66
2021/05/25 04:59:51;;;;;;;;;4.00;4.00;;;;;20.00;52.66;98460.34;6188929;28;125017;-66
2021/05/25 05:02:55;;;;;;;;;6.00;6.00;;;;;19.96;52.25;98457.38;6192172;28;125865;-66
2021/05/25 05:05:57;;;;;;;;;7.00;7.00;;;;;19.93;52.13;98460.72;6206814;28;125839;-66
2021/05/25 05:09:00;;;;;;;;;6.00;5.00;;;;;19.96;52.24;98470.25;6210765;28;126420;-66
2021/05/25 05:12:04;;;;;;;;;7.00;7.00;;;;;19.93;52.87;98466.19;6212269;28;126552;-66
2021/05/25 05:15:09;;;;;;;;;6.00;5.75;;;;;19.78;53.25;98453.50;6206714;28;125587;-66
2021/05/25 05:18:11;;;;;;;;;5.00;5.00;;;;;19.93;53.29;98473.59;6208806;28;124735;-67
2021/05/25 05:21:14;;;;;;;;;7.00;6.00;;;;;19.93;53.25;98470.84;6199847;28;124000;-66
2021/05/25 05:24:17;;;;;;;;;7.00;7.00;;;;;19.92;53.67;98463.75;6209821;28;127001;-66
2021/05/25 05:27:21;;;;;;;;;7.00;7.00;;;;;19.94;53.38;98470.53;6201345;28;125138;-66
2021/05/25 05:30:23;;;;;;;;;6.20;6.20;;;;;19.96;53.64;98471.06;6201108;28;126053;-66
2021/05/25 05:33:27;;;;;;;;;6.00;6.00;;;;;19.89;52.76;98467.84;6205742;28;125260;-67
2021/05/25 05:36:30;;;;;;;;;8.00;8.00;;;;;19.95;52.68;98469.44;6190727;28;126247;-66
2021/05/25 05:39:33;;;;;;;;;8.00;6.00;;;;;19.98;52.66;98476.25;6196026;28;125717;-66
2021/05/25 05:42:36;;;;;;;;;7.00;6.60;;;;;19.96;53.08;98482.00;6206001;28;123928;-66
2021/05/25 05:45:40;;;;;;;;;7.00;7.00;;;;;20.01;53.30;98476.47;6206292;28;125385;-67
2021/05/25 05:48:43;;;;;;;;;6.80;6.80;;;;;20.05;53.55;98465.75;6190373;28;125280;-65
2021/05/25 05:51:46;;;;;;;;;8.00;7.00;;;;;20.06;53.13;98467.38;6195114;28;125062;-66
2021/05/25 05:54:49;;;;;;;;;7.20;7.00;;;;;20.05;53.11;98457.53;6189768;28;125433;-66
2021/05/25 05:57:53;;;;;;;;;7.00;6.60;;;;;20.04;53.04;98451.25;6208503;28;125023;-67
2021/05/25 06:00:55;;;;;;;;;7.00;7.00;;;;;20.12;52.78;98467.03;6208611;28;124689;-67
2021/05/25 06:03:58;;;;;;;;;9.00;7.00;;;;;20.13;52.33;98468.66;6208614;28;126183;-67
2021/05/25 06:07:01;;;;;;;;;6.00;6.00;;;;;20.04;52.49;98475.88;6208567;28;124572;-68
2021/05/25 06:10:06;;;;;;;;;6.00;5.00;;;;;20.12;52.93;98483.47;6205310;28;126460;-67
2021/05/25 06:13:09;;;;;;;;;8.00;7.00;;;;;20.12;52.63;98482.63;6200462;28;126327;-67
2021/05/25 06:16:12;;;;;;;;;6.00;6.00;;;;;20.10;52.86;98477.44;6199094;28;126429;-68
2021/05/25 06:19:15;;;;;;;;;7.00;6.75;;;;;20.12;53.11;98471.69;6211664;28;125293;-68
2021/05/25 06:22:21;;;;;;;;;7.00;7.00;;;;;20.16;53.02;98472.72;6211957;28;126126;-66
2021/05/25 06:25:24;;;;;;;;;6.00;6.00;;;;;20.23;53.68;98467.72;6204966;28;126225;-66
2021/05/25 06:28:28;;;;;;;;;8.20;7.00;;;;;20.22;53.11;98460.63;6198070;28;126786;-66
2021/05/25 06:31:31;;;;;;;;;8.00;8.00;;;;;19.86;52.83;98384.47;6201409;28;126048;-67
2021/05/25 06:34:34;;;;;;;;;8.00;7.00;;;;;20.26;52.77;98453.44;6183462;28;125149;-67
2021/05/25 06:37:36;;;;;;;;;8.50;8.00;;;;;20.32;53.29;98460.50;6201968;28;125188;-67
2021/05/25 06:40:39;;;;;;;;;8.00;7.60;;;;;20.40;53.32;98459.00;6203696;28;125059;-66
2021/05/25 06:43:43;;;;;;;;;7.00;7.00;;;;;20.38;52.47;98453.81;6198358;28;126521;-66
2021/05/25 06:46:46;;;;;;;;;8.00;6.60;;;;;20.42;52.69;98465.84;6208644;28;126573;-67
2021/05/25 06:49:48;;;;;;;;;8.40;8.40;;;;;20.38;52.50;98451.09;6211245;28;125135;-68
2021/05/25 06:52:51;;;;;;;;;8.00;7.00;;;;;20.21;52.50;98437.09;6209498;28;125003;-69
2021/05/25 06:55:54;;;;;;;;;9.00;9.00;;;;;20.21;52.96;98446.09;6209888;28;125866;-65
2021/05/25 06:58:57;;;;;;;;;9.00;8.40;;;;;20.13;52.77;98441.31;6210105;28;126109;-65
2021/05/25 07:02:00;;;;;;;;;8.00;7.00;;;;;20.09;52.95;98439.41;6205615;28;124966;-67
2021/05/25 07:05:03;;;;;;;;;7.00;7.00;;;;;20.15;52.69;98438.25;6211159;28;126184;-66
2021/05/25 07:08:06;;;;;;;;;8.25;7.75;;;;;20.27;52.50;98435.91;6207103;28;126168;-67
2021/05/25 07:11:09;;;;;;;;;7.00;6.75;;;;;20.40;52.42;98448.06;6207637;28;125138;-65
2021/05/25 07:14:12;;;;;;;;;8.00;8.00;;;;;20.44;52.19;98440.88;6203322;28;126321;-67
2021/05/25 07:17:15;;;;;;;;;7.50;7.50;;;;;20.67;50.55;98468.16;6208641;28;126029;-65
2021/05/25 07:20:18;;;;;;;;;6.00;6.00;;;;;20.83;51.44;98463.28;6205252;28;124464;-67
2021/05/25 07:23:20;;;;;;;;;6.00;6.00;;;;;21.02;51.42;98464.06;6207539;28;125143;-66
2021/05/25 07:26:33;;;;;;;;;6.00;6.00;;;;;21.14;49.68;98456.22;6209972;28;124829;-66
2021/05/25 07:29:37;;;;;;;;;5.75;5.00;;;;;21.27;49.55;98457.34;6210796;28;124319;-64
2021/05/25 07:32:40;;;;;;;;;7.00;7.00;;;;;21.29;48.15;98459.78;6196392;28;126503;-66
2021/05/25 07:35:44;;;;;;;;;6.50;6.00;;;;;21.32;47.94;98476.44;6208662;28;127171;-65
2021/05/25 07:38:47;;;;;;;;;5.40;5.40;;;;;21.44;47.79;98474.06;6209851;28;126238;-66
2021/05/25 07:41:50;;;;;;;;;4.25;4.25;;;;;21.53;47.77;98474.16;6209868;28;126310;-67
2021/05/25 07:44:53;;;;;;;;;6.20;5.20;;;;;21.61;47.77;98489.91;6209717;28;125330;-65
2021/05/25 07:47:56;;;;;;;;;6.00;6.00;;;;;21.70;48.08;98484.56;6202686;28;126818;-65
2021/05/25 07:50:59;;;;;;;;;6.00;6.00;;;;;21.73;47.55;98486.69;6208366;28;127388;-65
2021/05/25 07:54:02;;;;;;;;;6.00;6.00;;;;;21.82;47.66;98491.16;6195419;28;126665;-66
2021/05/25 07:57:05;;;;;;;;;6.00;6.00;;;;;21.89;48.47;98494.28;6198877;28;124827;-66
2021/05/25 08:00:11;;;;;;;;;6.00;6.00;;;;;21.91;47.92;98499.47;6196139;28;124598;-64
2021/05/25 08:03:13;;;;;;;;;6.60;6.60;;;;;21.92;47.57;98496.44;6191175;28;125614;-64
2021/05/25 08:06:16;;;;;;;;;8.00;8.00;;;;;21.90;47.28;98495.91;6191221;28;126754;-64
2021/05/25 08:09:19;;;;;;;;;5.00;5.00;;;;;21.94;47.35;98496.97;6198865;28;125469;-65
2021/05/25 08:12:21;;;;;;;;;6.00;5.00;;;;;21.97;47.33;98499.13;6199090;28;126544;-66
2021/05/25 08:15:26;;;;;;;;;7.00;5.00;;;;;21.78;47.18;98476.41;6190328;28;126351;-66
2021/05/25 08:18:41;;;;;;;;;7.00;7.00;;;;;22.05;46.91;98503.06;6194156;28;124130;-65
2021/05/25 08:21:43;;;;;;;;;4.00;4.00;;;;;22.01;46.62;98502.88;6203160;28;125924;-66
2021/05/25 08:24:46;;;;;;;;;8.00;7.00;;;;;22.06;46.88;98507.44;6209851;28;124847;-66
2021/05/25 08:27:49;;;;;;;;;5.00;4.80;;;;;22.13;46.17;98501.56;6209665;28;126787;-65
2021/05/25 08:30:53;;;;;;;;;5.00;5.00;;;;;22.10;45.78;98511.19;6210089;28;126099;-66
2021/05/25 08:33:56;;;;;;;;;7.00;5.00;;;;;22.19;46.84;98511.28;6212924;28;126235;-65
2021/05/25 08:36:59;;;;;;;;;5.50;5.50;;;;;22.19;46.91;98514.84;6214147;28;124807;-66
2021/05/25 08:40:04;;;;;;;;;5.40;5.40;;;;;22.26;46.30;98519.94;6214446;28;126077;-67
2021/05/25 08:43:07;;;;;;;;;5.00;5.00;;;;;22.33;46.04;98523.09;6214056;28;126534;-67
2021/05/25 08:46:11;;;;;;;;;4.00;4.00;;;;;22.33;46.30;98523.88;6188716;28;124857;-67
2021/05/25 08:49:14;;;;;;;;;4.60;4.00;;;;;22.35;45.78;98524.41;6213619;28;124691;-68
2021/05/25 08:52:17;;;;;;;;;6.00;6.00;;;;;22.33;45.82;98534.88;6213155;28;126564;-67
2021/05/25 08:55:21;;;;;;;;;5.00;5.00;;;;;22.38;45.29;98533.97;6213769;28;126182;-66
2021/05/25 08:58:25;;;;;;;;;7.20;6.00;;;;;22.31;44.97;98539.88;6212308;28;125852;-67
2021/05/25 09:01:28;;;;;;;;;4.00;4.00;;;;;22.27;45.37;98535.31;6212452;28;124882;-66
2021/05/25 09:04:57;;;;;;;;;4.00;4.00;;;;;22.38;46.04;98543.00;6210633;28;126077;-70
2021/05/25 09:08:00;;;;;;;;;8.20;8.20;;;;;22.36;46.40;98549.94;6212473;28;126123;-66
2021/05/25 09:11:08;;;;;;;;;6.60;6.60;;;;;22.23;46.59;98537.84;6211874;28;126696;-67
2021/05/25 09:14:12;;;;;;;;;7.00;7.00;;;;;22.26;46.36;98536.41;6213648;28;125808;-68
2021/05/25 09:17:17;;;;;;;;;7.00;7.00;;;;;22.26;46.22;98542.72;6213809;28;125344;-66
2021/05/25 09:20:20;;;;;;;;;6.60;6.60;;;;;22.41;46.39;98553.41;6213584;28;124680;-68
2021/05/25 09:23:43;;;;;;;;;7.60;6.60;;;;;22.34;46.84;98561.22;6212924;28;126449;-65
2021/05/25 09:26:51;;;;;;;;;7.00;7.00;;;;;22.42;46.58;98554.22;6204950;28;124714;-66
2021/05/25 09:29:53;;;;;;;;;6.40;6.40;;;;;22.13;46.72;98496.88;6208016;28;123620;-65
2021/05/25 09:32:59;;;;;;;;;7.00;7.00;;;;;22.62;46.37;98556.53;6208694;28;125598;-66
2021/05/25 09:36:10;;;;;;;;;7.00;6.00;;;;;22.76;45.93;98562.84;6201575;27;126680;-66
2021/05/25 09:39:12;;;;;;;;;8.00;7.00;;;;;22.92;46.57;98549.53;6195685;28;125118;-66
2021/05/25 09:42:17;;;;;;;;;7.60;7.00;;;;;23.01;45.81;98550.44;6190953;28;127612;-65
2021/05/25 09:45:20;;;;;;;;;8.40;8.00;;;;;23.00;45.86;98561.75;6199930;28;124614;-68
2021/05/25 09:48:30;;;;;;;;;8.50;8.00;;;;;22.99;45.45;98557.38;6209326;28;124775;-68
2021/05/25 09:51:34;;;;;;;;;8.00;8.00;;;;;23.15;46.28;98561.38;6205296;27;123618;-66
2021/05/25 09:54:37;;;;;;;;;8.80;7.80;;;;;23.24;45.36;98563.09;6197069;28;126982;-66
2021/05/25 09:57:45;;;;;;;;;7.00;7.00;;;;;23.28;44.78;98564.06;6223002;28;126189;-66
2021/05/25 10:00:47;;;;;;;;;7.20;7.00;;;;;23.29;44.37;98565.72;6204996;28;126281;-68
2021/05/25 10:03:55;;;;;;;;;8.00;7.40;;;;;23.28;45.56;98557.75;6201869;28;125719;-66
2021/05/25 10:06:58;;;;;;;;;7.00;7.00;;;;;23.45;45.53;98568.13;6207412;28;125784;-68
2021/05/25 10:10:03;;;;;;;;;8.00;8.00;;;;;23.61;44.89;98556.38;6208874;28;126072;-66
2021/05/25 10:13:06;;;;;;;;;8.00;8.00;;;;;23.82;44.23;98553.09;6198810;28;125608;-66
2021/05/25 10:16:10;;;;;;;;;7.00;6.00;;;;;23.94;44.29;98545.91;6193269;28;125356;-68
2021/05/25 10:19:25;;;;;;;;;9.00;8.00;;;;;24.10;43.82;98563.59;6206255;28;126837;-67
2021/05/25 10:22:28;;;;;;;;;9.00;8.00;;;;;24.13;43.61;98564.94;6200228;28;124230;-67
2021/05/25 10:25:34;;;;;;;;;9.00;8.00;;;;;24.13;42.55;98564.94;6208033;28;126241;-68
2021/05/25 10:28:39;;;;;;;;;8.00;7.60;;;;;24.07;43.75;98561.50;6209848;28;125867;-67
2021/05/25 10:31:48;;;;;;;;;6.00;5.00;;;;;23.82;42.75;98553.09;6208617;28;124969;-67
2021/05/25 10:34:53;;;;;;;;;4.80;4.00;;;;;23.83;42.73;98560.25;6184556;28;123864;-67
2021/05/25 10:38:05;;;;;;;;;5.60;5.00;;;;;23.75;42.66;98559.88;6200540;28;126617;-68
2021/05/25 10:41:09;;;;;;;;;5.20;5.00;;;;;23.77;43.04;98567.81;6194796;28;126218;-67
2021/05/25 10:44:11;;;;;;;;;5.00;5.00;;;;;23.71;43.08;98572.66;6206911;28;127190;-68
2021/05/25 10:47:18;;;;;;;;;5.25;5.00;;;;;23.79;43.37;98564.75;6207122;28;126341;-69
2021/05/25 10:50:26;;;;;;;;;5.40;5.00;;;;;23.67;42.62;98554.31;6205866;28;126623;-68
2021/05/25 10:53:29;;;;;;;;;4.00;4.00;;;;;23.75;42.14;98564.56;6205825;28;125034;-68
2021/05/25 10:56:37;;;;;;;;;5.00;5.00;;;;;23.87;42.19;98564.81;6205376;28;125127;-67
2021/05/25 11:00:00;;;;;;;;;5.00;4.00;;;;;24.08;42.07;98559.56;6203528;28;126059;-69
2021/05/25 11:03:17;;;;;;;;;3.00;3.00;;;;;24.06;41.47;98565.38;6206715;28;123977;-68
2021/05/25 11:06:30;;;;;;;;;3.00;3.00;;;;;23.93;41.58;98562.72;6201065;28;124159;-68
2021/05/25 11:09:33;;;;;;;;;3.00;3.00;;;;;23.95;42.19;98569.53;6186668;28;125955;-68
2021/05/25 11:12:36;;;;;;;;;5.00;4.00;;;;;23.95;41.88;98575.03;6185286;28;124793;-69
2021/05/25 11:16:01;;;;;;;;;4.00;4.00;;;;;23.78;41.95;98566.69;6191063;28;124285;-66
2021/05/25 11:19:35;;;;;;;;;4.40;4.00;;;;;23.78;42.17;98576.91;6190432;28;124929;-68
2021/05/25 11:22:39;;;;;;;;;5.00;4.00;;;;;23.77;42.05;98567.00;6207571;28;124861;-65
2021/05/25 11:25:42;;;;;;;;;4.00;4.00;;;;;23.79;42.07;98590.34;6208640;28;124731;-66
2021/05/25 11:29:14;;;;;;;;;4.00;4.00;;;;;23.41;42.36;98578.88;6199653;28;125005;-65
2021/05/25 11:32:19;;;;;;;;;5.00;5.00;;;;;23.42;42.71;98569.50;6203491;28;124010;-67
2021/05/25 11:35:24;;;;;;;;;5.00;4.50;;;;;23.16;43.21;98585.84;6208279;28;125796;-66
2021/05/25 11:38:28;;;;;;;;;6.00;6.00;;;;;23.00;44.14;98584.56;6189187;28;122915;-65
2021/05/25 11:41:31;;;;;;;;;10.60;9.60;;;;;22.93;44.31;98578.66;6208798;28;126249;-67
2021/05/25 11:44:36;;;;;;;;;6.60;5.00;;;;;22.86;44.24;98581.03;6195074;28;126251;-66
2021/05/25 11:47:40;;;;;;;;;6.00;5.20;;;;;22.82;44.73;98591.81;6203455;28;124791;-69
2021/05/25 11:50:43;;;;;;;;;5.00;4.00;;;;;22.57;44.55;98592.34;6198548;28;126013;-66
2021/05/25 11:53:47;;;;;;;;;5.00;5.00;;;;;22.45;45.31;98583.81;6192750;28;126371;-68
2021/05/25 11:56:51;;;;;;;;;7.00;7.00;;;;;22.50;45.54;98607.59;6191510;28;126743;-67
2021/05/25 11:59:55;;;;;;;;;7.00;6.00;;;;;22.29;46.73;98598.97;6186480;28;126869;-66
2021/05/25 12:02:59;;;;;;;;;6.00;6.00;;;;;22.31;47.29;98610.47;6192471;28;125387;-67
2021/05/25 12:06:02;;;;;;;;;7.00;6.00;;;;;22.40;47.73;98605.88;6199300;28;126545;-68
2021/05/25 12:09:10;;;;;;;;;5.00;4.00;;;;;22.02;46.74;98586.84;6186345;28;126381;-67
2021/05/25 12:12:22;;;;;;;;;2.00;2.00;;;;;21.88;45.71;98640.06;6185497;28;126250;-68
2021/05/25 12:15:26;;;;;;;;;2.80;2.00;;;;;21.66;46.42;98656.34;6197821;28;126212;-68
2021/05/25 12:18:36;;;;;;;;;2.40;2.00;;;;;21.57;46.27;98672.69;6206411;28;126250;-66
2021/05/25 12:21:39;;;;;;;;;2.00;2.00;;;;;21.38;44.73;98669.97;6204333;28;127014;-67
2021/05/25 12:24:44;;;;;;;;;1.00;1.00;;;;;21.11;44.29;98678.78;6201743;28;125187;-67
2021/05/25 12:27:48;;;;;;;;;1.00;1.00;;;;;20.74;43.96;98682.31;6195428;28;124770;-67
2021/05/25 12:30:52;;;;;;;;;1.40;1.00;;;;;20.75;43.96;98694.91;6190696;28;125138;-67
2021/05/25 12:33:56;;;;;;;;;1.40;1.00;;;;;20.73;44.57;98708.06;6191981;28;127352;-66
2021/05/25 12:36:58;;;;;;;;;1.00;1.00;;;;;20.73;43.75;98691.63;6198911;28;124344;-66
2021/05/25 12:40:05;;;;;;;;;1.40;1.40;;;;;20.47;42.56;98682.09;6196815;28;126511;-67
2021/05/25 12:43:15;;;;;;;;;2.00;2.00;;;;;20.43;42.58;98691.97;6198129;28;126199;-66
2021/05/25 12:46:18;;;;;;;;;3.00;2.00;;;;;20.49;42.05;98693.56;6202307;28;125973;-66
2021/05/25 12:49:31;;;;;;;;;1.20;1.20;;;;;20.38;42.25;98653.69;6203647;28;125309;-66
2021/05/25 12:52:34;;;;;;;;;2.40;2.00;;;;;20.73;41.73;98696.28;6201619;28;123367;-66
2021/05/25 12:55:55;;;;;;;;;3.00;3.00;;;;;20.87;40.75;98701.88;6201879;28;126027;-66
2021/05/25 12:58:59;;;;;;;;;1.00;1.00;;;;;20.91;40.50;98722.94;6201256;28;124622;-67
2021/05/25 13:02:01;;;;;;;;;2.00;2.00;;;;;20.93;39.48;98725.38;6195767;28;123541;-68
2021/05/25 13:05:07;;;;;;;;;2.00;2.00;;;;;20.87;39.48;98724.63;6199136;28;125372;-67
2021/05/25 13:08:21;;;;;;;;;2.00;2.00;;;;;20.78;39.34;98715.41;6187343;28;123972;-68
2021/05/25 13:11:25;;;;;;;;;3.00;3.00;;;;;20.74;39.16;98711.63;6193488;28;126452;-74
2021/05/25 13:14:29;;;;;;;;;1.60;1.20;;;;;20.90;39.50;98721.31;6202238;28;127074;-69
2021/05/25 13:17:31;;;;;;;;;1.60;1.00;;;;;21.06;39.25;98722.72;6205350;28;123404;-69
2021/05/25 13:20:34;;;;;;;;;2.60;2.60;;;;;21.04;39.78;98724.97;6204049;28;126511;-69
2021/05/25 13:23:37;;;;;;;;;1.60;1.60;;;;;;;;6202824;28;125464;-69
2021/05/25 13:26:42;;;;;;;;;2.50;2.50;;;;;20.88;39.84;98725.44;6199435;28;125004;-69
2021/05/25 13:29:54;;;;;;;;;2.00;2.00;;;;;20.65;40.53;98696.94;6201675;28;123752;-69
2021/05/25 13:32:57;;;;;;;;;4.00;3.00;;;;;20.74;40.51;98733.53;6204847;28;126579;-69
2021/05/25 13:36:00;;;;;;;;;4.00;3.25;;;;;20.59;41.10;98726.31;6201324;28;125544;-69
2021/05/25 13:39:04;;;;;;;;;3.80;3.00;;;;;20.57;40.94;98728.53;6211997;28;127273;-69
2021/05/25 13:42:08;;;;;;;;;3.00;2.60;;;;;20.56;41.28;98746.06;6201461;28;126284;-70
2021/05/25 13:45:12;;;;;;;;;4.00;4.00;;;;;20.55;41.54;98754.56;6186977;28;123652;-70
2021/05/25 13:48:15;;;;;;;;;3.50;3.00;;;;;20.60;41.88;98757.25;6202163;28;125921;-69
2021/05/25 13:51:17;;;;;;;;;5.00;4.00;;;;;20.37;42.61;98763.53;6205583;28;126586;-70
2021/05/25 13:54:21;;;;;;;;;6.00;6.00;;;;;20.14;45.05;98767.78;6204157;28;126008;-69
2021/05/25 13:57:25;;;;;;;;;6.25;6.00;;;;;19.91;46.44;98772.09;6193058;28;125244;-69
2021/05/25 14:00:43;;;;;;;;;6.00;6.00;;;;;19.74;47.55;98783.41;6206687;28;124855;-69
2021/05/25 14:03:46;;;;;;;;;5.40;5.40;;;;;19.59;47.30;98772.59;6209401;28;124536;-69
2021/05/25 14:06:49;;;;;;;;;6.40;6.00;;;;;19.22;47.96;98751.16;6204038;28;126346;-68
2021/05/25 14:09:52;;;;;;;;;5.40;5.40;;;;;19.15;48.55;98738.91;6209943;28;125315;-68
2021/05/25 14:12:55;;;;;;;;;6.60;6.00;;;;;19.49;48.70;98782.75;6194412;28;125021;-68
2021/05/25 14:15:59;;;;;;;;;7.00;6.00;;;;;19.47;49.16;98774.84;6194823;28;124024;-69
2021/05/25 14:19:01;;;;;;;;;8.00;7.00;;;;;19.53;49.08;98776.44;6192086;28;126182;-68
2021/05/25 14:22:04;;;;;;;;;7.80;6.80;;;;;19.48;49.43;98781.94;6201433;28;124740;-68